Disclaimer

Please do not use the information listed here in-flight or in-navigation, as they are not provided to us by the airports but are provided by volunteers, so they might be outdated.

Search


Regions


Airport information page

Radio informations:
HIGUERO TWR - 121.7 MHz

Airport informations:
Latitude: 18° 34' 21.04" N
Longitude: 069° 59' 08.19" W
Elevation: 98 feet - 30 meters
Operating hours: 24 hour operations
Operating agency: Civil government, landing fees and diplomatic clearance may be required
Timezone: UTC-4
Fuel: N/A

Runway information:
01/19 - 5412 x 100 feet< - >1650 x 30 meters

Recent METARs:
MDJB 131800Z 36008KT 9999 FEW016CB SCT018 28/24 Q1016 RESH CB/NE/SW/NW
MDJB 131800Z 36008KT 9999 FEW016CB SCT018 28/24 Q1016 RESH CB/NE/SW/NW
MDJB 132000Z 18006KT 9999 FEW016CB BKN018 26/23 Q1015 RERA CB/S/SW

Airport on the map: